ADDS METAR Data INFO
IDs: Format: Raw Decoded Include TAF

Data at: 1716 UTC 23 Oct 2017

KIIB 231655Z AUTO 32009G14KT 10SM SCT100 SCT120 12/06 A2980 RMK AO2 T01150055
KIIB 231635Z AUTO 30009KT 10SM BKN110 11/06 A2980 RMK AO2 T01120057
KIIB 231615Z AUTO 27010G14KT 10SM BKN110 11/06 A2982 RMK AO2 T01050056
KIIB 231555Z AUTO 26011KT 10SM CLR 11/06 A2982 RMK AO2 T01050061
KIIB 231535Z AUTO 25009KT 10SM SCT110 10/06 A2982 RMK AO2 T01040062
KIIB 231515Z AUTO 25008KT 10SM BKN110 10/06 A2983 RMK AO2 T01000063
KIIB 231455Z AUTO 22006KT 10SM CLR 09/06 A2983 RMK AO2 T00930062
KIIB 231435Z AUTO 19007KT 10SM SCT110 09/06 A2985 RMK AO2 T00850061
KIIB 231415Z AUTO 19005KT 10SM SCT100 BKN120 08/06 A2986 RMK AO2 T00770060
KIIB 231355Z AUTO 16006KT 10SM SCT120 07/06 A2986 RMK AO2 T00700055
KIIB 231335Z AUTO 14007KT 10SM CLR 06/05 A2987 RMK AO2 T00600051
KIIB 231315Z AUTO 14009KT 10SM CLR 05/05 A2987 RMK AO2 T00510046
KIIB 231255Z AUTO 14008KT 10SM CLR 04/03 A2987 RMK AO2 T00370034
KIIB 231235Z AUTO 14006KT 10SM CLR 03/03 A2986 RMK AO2 T00300026
KIIB 231215Z AUTO 00000KT 10SM CLR 03/03 A2987 RMK AO2 T00340031
KIIB 231155Z AUTO 00000KT 10SM CLR 03/03 A2987 RMK AO2 T00290027
KIIB 231135Z AUTO 15004KT 10SM CLR 03/03 A2988 RMK AO2 T00300026
KIIB 231115Z AUTO 13005KT 10SM CLR 03/03 A2989 RMK AO2 T00330030
KIIB 231055Z AUTO 00000KT 10SM CLR 04/03 A2989 RMK AO2 T00360034
KIIB 231035Z AUTO 15004KT 10SM CLR 04/03 A2991 RMK AO2 T00350031
KIIB 231015Z AUTO 15007KT 10SM CLR 04/04 A2992 RMK AO2 T00410038
KIIB 230955Z AUTO 15006KT 10SM CLR 05/04 A2993 RMK AO2 T00470044
KIIB 230935Z AUTO 16007KT 10SM CLR 04/04 A2994 RMK AO2 T00410038
KIIB 230915Z AUTO 16005KT 10SM CLR 04/04 A2995 RMK AO2 T00380036
KIIB 230855Z AUTO 15005KT 10SM CLR 04/04 A2995 RMK AO2 T00370035
KIIB 230835Z AUTO 14004KT 10SM CLR 04/03 A2996 RMK AO2 T00350033
KIIB 230815Z AUTO 15005KT 10SM CLR 03/03 A2997 RMK AO2 T00270025
KIIB 230755Z AUTO 16005KT 10SM CLR 03/03 A2997 RMK AO2 T00310030
KIIB 230735Z AUTO 17005KT 10SM CLR 03/03 A2998 RMK AO2 T00300025
KIIB 230715Z AUTO 16004KT 10SM CLR 04/04 A2998 RMK AO2 T00420039
KIIB 230655Z AUTO 16007KT 10SM CLR 04/04 A2998 RMK AO2 T00410037
KIIB 230635Z AUTO 17005KT 10SM CLR 04/04 A2999 RMK AO2 T00440041
KIIB 230615Z AUTO 16004KT 10SM CLR 04/04 A2999 RMK AO2 T00410037
KIIB 230555Z AUTO 15005KT 10SM CLR 04/04 A3000 RMK AO2 T00400036
KIIB 230535Z AUTO 16005KT 10SM CLR 04/04 A3000 RMK AO2 T00420037
KIIB 230515Z AUTO 15004KT 10SM CLR 04/04 A3000 RMK AO2 T00440037
KIIB 230455Z AUTO 16004KT 10SM CLR 05/04 A3001 RMK AO2 T00510044
KIIB 230435Z AUTO 18004KT 10SM CLR 05/05 A3002 RMK AO2 T00530045
KIIB 230415Z AUTO 17005KT 10SM CLR 06/05 A3002 RMK AO2 T00560047
KIIB 230355Z AUTO 18005KT 10SM CLR 06/05 A3003 RMK AO2 T00550045
KIIB 230335Z AUTO 18005KT 10SM CLR 06/05 A3003 RMK AO2 T00610051
KIIB 230315Z AUTO 18004KT 10SM CLR 07/05 A3004 RMK AO2 T00650053
KIIB 230255Z AUTO 17006KT 10SM CLR 06/05 A3004 RMK AO2 T00640050
KIIB 230235Z AUTO 18004KT 10SM CLR 07/06 A3004 RMK AO2 T00710055
KIIB 230215Z AUTO 17006KT 10SM CLR 07/06 A3004 RMK AO2 T00680056
KIIB 230155Z AUTO 15005KT 10SM CLR 07/05 A3004 RMK AO2 T00650051
KIIB 230135Z AUTO 16006KT 10SM CLR 07/06 A3005 RMK AO2 T00700056
KIIB 230115Z AUTO 16005KT 10SM CLR 07/06 A3004 RMK AO2 T00670055
KIIB 230055Z AUTO 15005KT 10SM CLR 07/06 A3005 RMK AO2 T00710056
KIIB 230035Z AUTO 15005KT 10SM CLR 07/06 A3005 RMK AO2 T00730057
KIIB 230015Z AUTO 15005KT 10SM CLR 08/06 A3005 RMK AO2 T00760060
KIIB 222355Z AUTO 15005KT 10SM CLR 08/06 A3005 RMK AO2 T00800062
KIIB 222335Z AUTO 16005KT 10SM CLR 09/07 A3005 RMK AO2 T00850065
KIIB 222315Z AUTO 15005KT 10SM CLR 10/07 A3005 RMK AO2 T00960070
KIIB 222255Z AUTO 16004KT 10SM CLR 11/08 A3005 RMK AO2 T01120075
KIIB 222235Z AUTO 17004KT 10SM CLR 12/08 A3005 RMK AO2 T01170075
KIIB 222215Z AUTO 17003KT 10SM CLR 13/07 A3005 RMK AO2 T01260070
KIIB 222155Z AUTO 00000KT 10SM CLR 13/07 A3004 RMK AO2 T01310070
KIIB 222135Z AUTO 00000KT 10SM CLR 13/06 A3004 RMK AO2 T01320063
KIIB 222115Z AUTO 00000KT 10SM CLR 13/07 A3005 RMK AO2 T01310066
KIIB 222055Z AUTO 31004KT 10SM CLR 13/06 A3004 RMK AO2 T01330062
KIIB 222035Z AUTO 29006KT 10SM CLR 14/07 A3004 RMK AO2 T01370071
KIIB 222015Z AUTO 29004KT 10SM CLR 13/07 A3004 RMK AO2 T01280066
KIIB 221955Z AUTO 29004KT 10SM CLR 12/07 A3005 RMK AO2 T01220071
KIIB 221935Z AUTO 29005KT 10SM CLR 13/07 A3005 RMK AO2 T01250074
KIIB 221915Z AUTO 31004KT 10SM CLR 12/07 A3005 RMK AO2 T01210073
KIIB 221855Z AUTO 31003KT 10SM CLR 12/07 A3005 RMK AO2 T01160073
KIIB 221835Z AUTO 32003KT 10SM SCT120 11/08 A3005 RMK AO2 T01130076
KIIB 221815Z AUTO 32005KT 10SM SCT110 11/08 A3005 RMK AO2 T01120075
KIIB 221755Z AUTO 30007KT 10SM OVC110 11/08 A3004 RMK AO2 T01110075
KIIB 221735Z AUTO 30006KT 10SM BKN120 11/08 A3005 RMK AO2 T01080079
KIIB 221715Z AUTO 30007KT 10SM BKN120 11/08 A3004 RMK AO2 T01060080
KIIB 221655Z AUTO 32007KT 10SM OVC110 11/08 A3003 RMK AO2 T01090080
KIIB 221635Z AUTO 33007KT 10SM OVC100 11/08 A3003 RMK AO2 T01100080
KIIB 221615Z AUTO 31006KT 10SM OVC100 11/08 A3004 RMK AO2 T01080081
KIIB 221555Z AUTO 33005KT 10SM OVC090 11/08 A3003 RMK AO2 T01050081
KIIB 221535Z AUTO 31007KT 10SM OVC090 11/09 A3004 RMK AO2 T01080085
KIIB 221515Z AUTO 29003KT 10SM OVC080 10/08 A3003 RMK AO2 T01020083
KIIB 221455Z AUTO 31006KT 10SM OVC070 10/08 A3002 RMK AO2 T01000082
KIIB 221435Z AUTO 31006KT 10SM OVC070 10/08 A3001 RMK AO2 T00980082
KIIB 221415Z AUTO 32005KT 10SM OVC060 10/08 A3000 RMK AO2 T00980081
KIIB 221355Z AUTO 31007KT 10SM OVC060 10/08 A3000 RMK AO2 T00980081
KIIB 221335Z AUTO 32006KT 10SM BKN060 OVC075 10/08 A2999 RMK AO2 T00970081
KIIB 221315Z AUTO 31007KT 10SM BKN060 OVC075 10/09 A2999 RMK AO2 T00950085
KIIB 221255Z AUTO 30008KT 10SM -DZ BKN060 BKN075 OVC095 10/09 A2998 RMK AO2 T00950087
KIIB 221235Z AUTO 30005KT 10SM -RA SCT075 BKN095 OVC110 10/09 A2997 RMK AO2 T00950087
KIIB 221215Z AUTO 31004KT 10SM OVC110 10/09 A2996 RMK AO2 T00950087
KIIB 221155Z AUTO 32003KT 10SM -DZ OVC100 10/09 A2995 RMK AO2 P0001 T00950087
KIIB 221135Z AUTO 29004KT 10SM -DZ SCT080 OVC100 10/09 A2997 RMK AO2 P0001 T00950087
KIIB 221115Z AUTO 31005KT 10SM -RA SCT055 BKN080 OVC110 09/09 A2996 RMK AO2 T00930085
KIIB 221055Z AUTO 31005KT 10SM RA BKN055 BKN070 OVC080 09/09 A2997 RMK AO2 P0003 T00930085
KIIB 221035Z AUTO 32006KT 10SM RA BKN055 BKN065 OVC095 10/09 A2996 RMK AO2 P0002 T00950085
KIIB 221015Z AUTO 32004KT 10SM -RA BKN075 OVC095 10/09 A2996 RMK AO2 T00950087
KIIB 220955Z AUTO 32006KT 10SM -RA SCT060 BKN080 OVC095 10/09 A2994 RMK AO2 P0005 T00950087
KIIB 220935Z AUTO 32005KT 10SM -RA SCT050 BKN070 OVC095 10/09 A2994 RMK AO2 P0005 T00960086
KIIB 220915Z AUTO 31005KT 10SM RA BKN060 BKN080 OVC095 10/09 A2994 RMK AO2 P0003 T00980085
KIIB 220855Z AUTO 32005KT 10SM RA SCT080 OVC095 10/09 A2994 RMK AO2 P0001 T01000085
KIIB 220835Z AUTO 34008G14KT 10SM -RA SCT033 SCT050 OVC095 10/08 A2992 RMK AO2 T01010084
KIIB 220815Z AUTO 33010KT 10SM RA SCT017 BKN033 OVC046 11/09 A2992 RMK AO2 T01050086
KIIB 220755Z AUTO 32008KT 10SM -RA SCT014 BKN020 OVC031 11/10 A2993 RMK AO2 P0004 T01100101
KIIB 220735Z AUTO 32009G14KT 7SM RA OVC016 11/10 A2991 RMK AO2 P0003 T01110101
KIIB 220715Z AUTO 32008KT 10SM RA SCT009 BKN018 OVC100 12/11 A2991 RMK AO2 P0001 T01160108
KIIB 220655Z AUTO 31009KT 10SM RA SCT018 SCT035 OVC100 12/11 A2991 RMK AO2 P0003 T01170110
KIIB 220635Z AUTO 32005KT 10SM -DZ SCT026 SCT033 OVC100 12/11 A2990 RMK AO2 P0002 T01190110
KIIB 220615Z AUTO 32008KT 7SM RA OVC026 12/11 A2991 RMK AO2 P0002 T01200110
KIIB 220555Z AUTO 31010G14KT 7SM RA OVC024 12/11 A2992 RMK AO2 P0001 T01220110
KIIB 220535Z AUTO 28008KT 10SM SCT010 OVC020 13/11 A2991 RMK AO2 T01270111